Terminal Aerodrome Forecast
Issued by NWS Springfield, MO

Home | Current Version | Previous Version | Text Only | Print | Product List | Glossary On
Versions: 1 2 3 4 5 6 7 8 9 10 11 12 13 14 15 16 17 18 19 20 21 22 23 24 25 26 27 28
000
FTUS43 KSGF 221951 AAB
TAFSGF
TAF AMD
KSGF 221951Z 2220/2318 21012KT P6SM OVC045
     FM230000 24010KT P6SM VCSH OVC070
     FM230600 23006KT P6SM OVC028 PROB30 2306/2309 4SM -SHRA BR
      OVC015
     FM230900 29006KT P6SM OVC016 PROB30 2309/2312 4SM -SHRA BR
      OVC009
     FM231200 35007KT 6SM -SHRA BR OVC013 PROB30 2316/2318 4SM -SHRA
      BR OVC009=

USA.gov is the U.S. government's official web portal to all federal, state and local government web resources and services.